Time;durP1;ratioP1;P1;durP2;ratioP2;P2;SDS_P1;SDS_P2;PMS_P1;PMS_P2;Temp;Humidity;BMP_temperature;BMP_pressure;BME280_temperature;BME280_humidity;BME280_pressure;Samples;Min_cycle;Max_cycle;Signal;HPM_P1;HPM_P2
2021/05/31 00:01:55;;;;;;;21.67;16.70;;;;;;;15.63;73.90;99951.31;5027220;28;20064;-24
2021/05/31 00:04:21;;;;;;;19.92;15.70;;;;;;;15.21;75.06;99941.22;5025927;28;20052;-24
2021/05/31 00:06:50;;;;;;;21.00;15.73;;;;;;;15.45;75.09;99957.06;5027103;28;20044;-24
2021/05/31 00:09:16;;;;;;;17.08;13.90;;;;;;;15.51;74.00;99956.03;5026033;28;20238;-24
2021/05/31 00:11:41;;;;;;;17.63;13.93;;;;;;;15.18;75.29;99952.50;5026842;28;20037;-24
2021/05/31 00:14:07;;;;;;;16.85;14.02;;;;;;;14.86;76.63;99944.31;5025799;28;20025;-24
2021/05/31 00:16:32;;;;;;;17.48;14.13;;;;;;;14.97;75.20;99929.94;5025517;28;20034;-24
2021/05/31 00:18:58;;;;;;;17.48;13.27;;;;;;;15.20;75.09;99960.28;5026976;28;20025;-24
2021/05/31 00:21:23;;;;;;;15.40;12.93;;;;;;;15.39;74.38;99941.94;5026962;28;20112;-24
2021/05/31 00:23:49;;;;;;;15.93;12.77;;;;;;;15.34;73.87;99931.13;5027176;28;20037;-25
2021/05/31 00:26:16;;;;;;;16.70;13.00;;;;;;;15.43;74.43;99946.56;5027073;28;20478;-24
2021/05/31 00:28:43;;;;;;;15.95;12.48;;;;;;;15.28;74.65;99946.38;5027079;28;20068;-24
2021/05/31 00:31:08;;;;;;;17.42;12.23;;;;;;;15.07;74.77;99942.69;5026033;28;20128;-23
2021/05/31 00:33:34;;;;;;;15.60;11.48;;;;;;;14.79;75.70;99928.41;5026970;28;20033;-25
2021/05/31 00:36:00;;;;;;;16.35;13.05;;;;;;;14.91;75.77;99924.78;5027484;28;20057;-23
2021/05/31 00:38:25;;;;;;;14.43;12.00;;;;;;;15.25;74.58;99941.53;5030722;28;20064;-24
2021/05/31 00:40:51;;;;;;;14.05;11.50;;;;;;;15.56;73.08;99933.78;5029806;28;20102;-24
2021/05/31 00:43:16;;;;;;;14.93;11.77;;;;;;;15.50;73.28;99938.28;5030736;28;20040;-23
2021/05/31 00:45:42;;;;;;;13.50;11.90;;;;;;;15.29;73.74;99939.16;5029561;28;20073;-23
2021/05/31 00:48:07;;;;;;;14.70;11.48;;;;;;;15.36;73.26;99934.38;5030592;28;20052;-23
2021/05/31 00:50:33;;;;;;;15.65;11.35;;;;;;;15.31;73.20;99937.03;5030310;28;20044;-23
2021/05/31 00:52:58;;;;;;;12.63;10.95;;;;;;;15.17;73.02;99940.09;5030450;28;20056;-23
2021/05/31 00:55:24;;;;;;;13.10;11.23;;;;;;;15.24;73.51;99924.63;5030374;28;20027;-24
2021/05/31 00:57:50;;;;;;;13.55;11.00;;;;;;;14.71;75.32;99928.84;5030500;28;20034;-23
2021/05/31 01:00:16;;;;;;;14.73;11.02;;;;;;;14.69;75.04;99928.28;5030286;28;20061;-23
2021/05/31 01:02:41;;;;;;;14.43;11.43;;;;;;;14.88;75.17;99919.91;5030677;28;20029;-24
2021/05/31 01:05:07;;;;;;;14.43;11.57;;;;;;;15.22;74.34;99904.41;5030198;28;20038;-24
2021/05/31 01:07:41;;;;;;;15.77;11.48;;;;;;;14.96;74.55;99912.22;5029351;28;20127;-24
2021/05/31 01:10:14;;;;;;;14.43;10.95;;;;;;;15.23;73.93;99911.44;5029023;28;20029;-24
2021/05/31 01:13:03;;;;;;;14.50;11.70;;;;;;;15.35;73.30;99919.34;5030298;28;20476;-23
2021/05/31 01:15:31;;;;;;;14.13;11.18;;;;;;;15.23;74.33;99922.97;5028872;28;20101;-24
2021/05/31 01:18:01;;;;;;;13.35;10.52;;;;;;;15.12;74.63;99926.63;5030085;28;20048;-23
2021/05/31 01:20:59;;;;;;;13.75;10.48;;;;;;;14.88;74.67;99914.53;5029272;28;20817;-23
2021/05/31 01:23:28;;;;;;;13.68;9.73;;;;;;;14.70;75.05;99926.41;5028810;28;20465;-24
2021/05/31 01:26:11;;;;;;;13.32;9.30;;;;;;;14.10;76.69;99914.53;5029916;28;20033;-23
2021/05/31 01:28:42;;;;;;;12.60;9.48;;;;;;;13.99;77.75;99919.75;5029000;28;20044;-24
2021/05/31 01:31:08;;;;;;;14.98;9.55;;;;;;;14.06;77.19;99907.00;5029985;28;20065;-24
2021/05/31 01:33:34;;;;;;;15.25;11.25;;;;;;;14.41;77.93;99924.66;5011967;28;20060;-23
2021/05/31 01:36:00;;;;;;;15.13;9.90;;;;;;;14.29;78.68;99918.59;5012303;28;20084;-24
2021/05/31 01:38:25;;;;;;;14.85;9.85;;;;;;;14.40;76.66;99920.34;5028149;28;20040;-24
2021/05/31 01:40:51;;;;;;;13.80;10.18;;;;;;;14.59;75.62;99906.69;5029849;28;20029;-24
2021/05/31 01:43:16;;;;;;;12.10;8.95;;;;;;;14.72;76.16;99908.97;5028505;28;20471;-24
2021/05/31 01:45:42;;;;;;;12.98;9.30;;;;;;;14.34;76.33;99907.91;5012579;28;20029;-24
2021/05/31 01:48:09;;;;;;;12.13;8.88;;;;;;;14.66;76.96;99899.25;5028991;28;20034;-24
2021/05/31 01:50:34;;;;;;;11.75;9.15;;;;;;;14.79;74.96;99916.84;5011904;28;20041;-24
2021/05/31 01:53:00;;;;;;;12.55;9.32;;;;;;;15.13;76.17;99922.88;5028401;28;20057;-23
2021/05/31 01:55:26;;;;;;;12.88;8.90;;;;;;;15.04;73.18;99916.34;5028265;28;20044;-23
2021/05/31 01:57:51;;;;;;;11.27;8.13;;;;;;;15.07;73.08;99913.94;5028301;28;20025;-23
2021/05/31 02:00:18;;;;;;;12.88;8.50;;;;;;;14.86;73.94;99907.53;5011428;28;20033;-23
2021/05/31 02:02:43;;;;;;;10.50;8.10;;;;;;;14.45;76.37;99911.56;5029406;28;20029;-23
2021/05/31 02:05:10;;;;;;;11.18;8.07;;;;;;;14.46;75.27;99891.72;5029101;28;20078;-23
2021/05/31 02:07:38;;;;;;;11.30;8.60;;;;;;;14.25;75.66;99904.84;5029072;28;20021;-23
2021/05/31 02:10:08;;;;;;;10.25;8.48;;;;;;;14.22;76.39;99891.13;5027825;28;20087;-23
2021/05/31 02:12:41;;;;;;;11.40;9.10;;;;;;;14.79;74.89;99890.00;5028964;28;20025;-23
2021/05/31 02:15:07;;;;;;;10.70;8.32;;;;;;;14.52;75.11;99904.13;5011883;28;20029;-25
2021/05/31 02:17:57;;;;;;;11.57;8.77;;;;;;;14.56;75.22;99907.16;5029189;28;20115;-24
2021/05/31 02:20:24;;;;;;;12.90;8.27;;;;;;;14.24;75.65;99905.09;5027558;28;20037;-23
2021/05/31 02:22:52;;;;;;;12.93;9.80;;;;;;;14.18;77.65;99911.44;5027686;28;20505;-24
2021/05/31 02:25:17;;;;;;;;;;;;;;;14.32;75.76;99907.34;5028229;28;20025;-24
2021/05/31 02:27:43;;;;;;;12.85;8.20;;;;;;;14.60;75.08;99886.81;5028934;28;19966;-24
2021/05/31 02:30:09;;;;;;;11.60;7.57;;;;;;;14.36;74.49;99897.75;5029019;28;20568;-24
2021/05/31 02:32:35;;;;;;;13.30;8.27;;;;;;;14.69;75.04;99906.81;5011426;28;20802;-23
2021/05/31 02:35:01;;;;;;;11.07;7.15;;;;;;;14.23;75.56;99903.47;5028674;28;20072;-25
2021/05/31 02:37:37;;;;;;;10.95;7.03;;;;;;;14.14;76.14;99904.94;5029059;28;20144;-24
2021/05/31 02:40:06;;;;;;;11.82;7.85;;;;;;;14.30;75.01;99892.56;5027471;28;20026;-23
2021/05/31 02:42:43;;;;;;;10.73;8.18;;;;;;;14.31;75.57;99908.44;5028263;28;20031;-24
2021/05/31 02:45:09;;;;;;;10.73;7.93;;;;;;;14.24;75.82;99894.38;5027414;28;20025;-23
2021/05/31 02:47:35;;;;;;;11.95;8.23;;;;;;;14.19;76.03;99897.78;5027416;28;20091;-24
2021/05/31 02:50:00;;;;;;;11.30;7.60;;;;;;;14.52;74.84;99906.00;5028607;28;20017;-24
2021/05/31 02:52:26;;;;;;;10.88;7.57;;;;;;;14.49;74.55;99909.22;5028040;28;20172;-23
2021/05/31 02:54:52;;;;;;;11.15;8.48;;;;;;;14.69;74.33;99901.44;5027219;28;20095;-24
2021/05/31 02:57:18;;;;;;;11.07;7.70;;;;;;;14.51;74.24;99886.44;5028257;28;20041;-24
2021/05/31 02:59:43;;;;;;;11.75;7.97;;;;;;;14.50;74.45;99905.44;5026180;28;20037;-24
2021/05/31 03:02:09;;;;;;;10.15;7.07;;;;;;;14.24;75.25;99905.09;5027882;28;20037;-24
2021/05/31 03:04:34;;;;;;;14.90;7.50;;;;;;;14.42;75.31;99890.59;5027997;28;20486;-23
2021/05/31 03:07:00;;;;;;;13.57;7.63;;;;;;;14.20;76.07;99904.78;5028298;28;20461;-23
2021/05/31 03:09:25;;;;;;;10.15;7.32;;;;;;;14.19;75.80;99902.34;5026748;28;20397;-24
2021/05/31 03:11:51;;;;;;;10.85;6.80;;;;;;;14.16;75.54;99900.16;5028152;28;20029;-24
2021/05/31 03:14:17;;;;;;;11.02;7.10;;;;;;;14.00;76.24;99901.81;5027622;28;20029;-24
2021/05/31 03:16:42;;;;;;;8.90;6.57;;;;;;;13.80;75.84;99897.75;5028176;28;20148;-24
2021/05/31 03:19:08;;;;;;;9.65;6.82;;;;;;;14.04;76.20;99906.44;5028328;28;20033;-24
2021/05/31 03:21:33;;;;;;;10.98;6.78;;;;;;;14.34;75.44;99909.78;5028126;28;20037;-23
2021/05/31 03:23:59;;;;;;;11.95;6.68;;;;;;;14.16;75.81;99894.78;5028003;28;20091;-23
2021/05/31 03:26:24;;;;;;;11.68;7.32;;;;;;;14.32;74.85;99896.63;5027623;28;20029;-24
2021/05/31 03:28:50;;;;;;;9.23;6.60;;;;;;;13.81;76.27;99901.25;5027598;28;20030;-25
2021/05/31 03:31:16;;;;;;;8.68;6.22;;;;;;;13.56;77.29;99894.41;5027732;28;20090;-24
2021/05/31 03:33:42;;;;;;;9.02;6.80;;;;;;;13.65;77.48;99889.50;5026820;28;20037;-23
2021/05/31 03:36:07;;;;;;;11.35;7.20;;;;;;;13.64;77.00;99895.88;5027540;28;20061;-24
2021/05/31 03:38:33;;;;;;;9.05;6.35;;;;;;;13.62;76.85;99896.13;5027277;28;20064;-23
2021/05/31 03:40:58;;;;;;;13.32;7.00;;;;;;;14.00;76.28;99902.63;5027893;28;20032;-24
2021/05/31 03:43:24;;;;;;;10.02;6.47;;;;;;;13.88;76.93;99901.91;5027405;28;20456;-24
2021/05/31 03:45:49;;;;;;;8.90;6.68;;;;;;;14.12;76.21;99901.69;5026707;28;20496;-24
2021/05/31 03:48:15;;;;;;;10.18;6.43;;;;;;;13.91;75.82;99890.69;5027271;28;20370;-24
2021/05/31 03:50:40;;;;;;;8.82;6.28;;;;;;;13.87;76.85;99910.97;5027695;28;20029;-25
2021/05/31 03:53:06;;;;;;;9.68;6.57;;;;;;;13.97;75.64;99899.63;5027526;28;20057;-24
2021/05/31 03:55:31;;;;;;;10.73;6.57;;;;;;;13.66;76.40;99893.78;5027451;28;20140;-23
2021/05/31 03:57:57;;;;;;;9.43;6.38;;;;;;;13.49;77.60;99888.41;5027613;28;20075;-23
2021/05/31 04:00:24;;;;;;;9.68;6.43;;;;;;;13.92;76.98;99896.88;5027187;28;20037;-23
2021/05/31 04:02:49;;;;;;;9.52;6.72;;;;;;;14.13;76.34;99898.78;5027388;28;20037;-23
2021/05/31 04:05:16;;;;;;;9.00;6.32;;;;;;;14.09;75.25;99896.84;5026105;28;20045;-23
2021/05/31 04:13:10;;;;;;;10.60;6.90;;;;;;;13.84;77.35;99895.41;5026965;28;20052;-23
2021/05/31 04:15:36;;;;;;;8.55;6.10;;;;;;;13.98;75.86;99895.88;5027367;28;20021;-23
2021/05/31 04:18:01;;;;;;;8.48;6.00;;;;;;;13.86;75.75;99887.94;5027199;28;20441;-23
2021/05/31 04:20:27;;;;;;;9.18;6.47;;;;;;;13.73;77.12;99898.97;5026860;28;20040;-23
2021/05/31 04:22:52;;;;;;;9.23;6.40;;;;;;;14.14;76.05;99913.00;5026964;28;20425;-24
2021/05/31 04:25:18;;;;;;;8.80;5.90;;;;;;;14.02;76.17;99903.19;5027473;28;20405;-23
2021/05/31 04:27:43;;;;;;;8.48;6.35;;;;;;;14.26;75.88;99894.94;5027196;28;20046;-23
2021/05/31 04:30:12;;;;;;;8.40;5.95;;;;;;;13.99;75.85;99895.63;5026108;28;20029;-28
2021/05/31 04:32:37;;;;;;;7.65;6.18;;;;;;;14.28;76.18;99911.59;5027139;28;20524;-23
2021/05/31 04:35:03;;;;;;;9.45;6.35;;;;;;;14.38;75.77;99900.19;5027224;28;20037;-23
2021/05/31 04:37:30;;;;;;;9.07;6.10;;;;;;;14.00;75.41;99899.94;5027036;28;20114;-23
2021/05/31 04:39:56;;;;;;;11.05;6.55;;;;;;;14.19;76.02;99918.44;5026198;28;20129;-23
2021/05/31 04:42:22;;;;;;;10.52;6.53;;;;;;;13.69;76.68;99895.16;5026645;28;20129;-23
2021/05/31 04:44:47;;;;;;;9.43;6.00;;;;;;;13.74;77.37;99911.31;5026932;28;20022;-23
2021/05/31 04:47:13;;;;;;;9.93;6.18;;;;;;;13.62;77.65;99896.13;5026757;28;20037;-23
2021/05/31 04:49:38;;;;;;;9.73;6.38;;;;;;;13.89;77.51;99906.19;5026682;28;20497;-23
2021/05/31 04:52:04;;;;;;;8.65;6.30;;;;;;;14.24;76.25;99913.97;5026949;28;20422;-23
2021/05/31 04:54:29;;;;;;;9.40;5.97;;;;;;;14.01;76.41;99917.63;5026972;28;20156;-23
2021/05/31 04:56:55;;;;;;;9.77;6.00;;;;;;;14.20;76.72;99918.22;5026957;28;20061;-23
2021/05/31 04:59:21;;;;;;;9.20;5.90;;;;;;;14.19;75.90;99915.75;5026715;28;20036;-24
2021/05/31 05:01:46;;;;;;;9.32;6.30;;;;;;;14.18;75.95;99916.81;5026722;28;20025;-23
2021/05/31 05:04:12;;;;;;;10.43;6.65;;;;;;;14.17;75.99;99920.56;5026486;28;20033;-23
2021/05/31 05:06:37;;;;;;;10.57;6.70;;;;;;;14.19;77.47;99935.34;5026637;28;20040;-23
2021/05/31 05:09:03;;;;;;;7.45;5.90;;;;;;;14.40;76.88;99931.06;5027026;28;20033;-23
2021/05/31 05:11:28;;;;;;;7.88;5.95;;;;;;;14.68;75.40;99932.00;5026722;28;20037;-24
2021/05/31 05:13:54;;;;;;;7.68;4.97;;;;;;;14.62;74.06;99933.00;5027221;28;20029;-23
2021/05/31 05:16:20;;;;;;;7.88;5.78;;;;;;;14.58;75.41;99937.25;5026437;28;20029;-23
2021/05/31 05:18:47;;;;;;;8.88;5.60;;;;;;;14.60;74.67;99945.88;5026519;28;20029;-23
2021/05/31 05:21:13;;;;;;;9.68;5.57;;;;;;;14.76;73.95;99931.56;5026428;28;20029;-23
2021/05/31 05:23:38;;;;;;;7.43;5.45;;;;;;;15.02;73.45;99948.00;5027316;28;20414;-23
2021/05/31 05:26:04;;;;;;;7.40;5.25;;;;;;;14.84;74.99;99939.19;5030229;28;20052;-23
2021/05/31 05:28:31;;;;;;;8.15;5.60;;;;;;;14.48;74.53;99959.34;5029817;28;20478;-23
2021/05/31 05:30:57;;;;;;;7.67;5.30;;;;;;;14.47;74.83;99958.56;5029922;28;20548;-23
2021/05/31 05:33:22;;;;;;;6.60;4.90;;;;;;;14.05;75.82;99956.31;5029807;28;20064;-23
2021/05/31 05:36:36;;;;;;;6.70;4.28;;;;;;;13.59;76.67;99942.16;5028953;28;20052;-24
2021/05/31 05:41:21;;;;;;;6.30;4.75;;;;;;;13.83;76.76;99963.47;5029986;28;20120;-23
2021/05/31 05:43:59;;;;;;;7.28;4.45;;;;;;;13.72;76.62;99959.81;5029905;28;20029;-23
2021/05/31 05:49:09;;;;;;;8.80;5.05;;;;;;;13.59;77.48;99960.13;5029733;28;20460;-23
2021/05/31 05:51:34;;;;;;;8.32;5.65;;;;;;;13.70;77.67;99963.78;5029609;28;20053;-23
2021/05/31 05:54:01;;;;;;;9.57;6.20;;;;;;;13.81;77.01;99965.56;5029526;28;20061;-23
2021/05/31 05:56:27;;;;;;;7.55;5.32;;;;;;;13.78;76.44;99953.47;5027919;28;20090;-23
2021/05/31 05:58:53;;;;;;;7.60;5.63;;;;;;;14.04;76.03;99957.38;5029248;28;20065;-23
2021/05/31 06:01:19;;;;;;;7.80;5.68;;;;;;;13.86;75.87;99971.03;5029302;28;20033;-23
2021/05/31 06:03:47;;;;;;;7.07;5.43;;;;;;;13.58;76.94;99969.19;5028165;28;20075;-23
2021/05/31 06:06:13;;;;;;;9.93;6.07;;;;;;;13.53;77.79;99972.59;5029144;28;20087;-23
2021/05/31 06:08:38;;;;;;;7.80;5.13;;;;;;;13.52;77.18;99979.00;5029659;28;20409;-23
2021/05/31 06:11:04;;;;;;;7.70;5.53;;;;;;;13.93;76.19;99973.53;5029111;28;20040;-23
2021/05/31 06:13:30;;;;;;;8.98;6.63;;;;;;;14.25;75.37;99981.84;5028989;28;20034;-24
2021/05/31 06:15:59;;;;;;;9.73;5.75;;;;;;;14.09;76.32;99978.09;5029196;28;20120;-23
2021/05/31 06:18:25;;;;;;;9.13;6.45;;;;;;;14.29;75.96;99979.47;5011854;28;20151;-24
2021/05/31 06:20:50;;;;;;;9.02;5.85;;;;;;;14.43;74.91;99981.56;5028985;28;20029;-23
2021/05/31 06:23:16;;;;;;;9.35;6.50;;;;;;;14.59;75.37;99960.34;5029144;28;20037;-23
2021/05/31 06:25:41;;;;;;;8.35;5.63;;;;;;;14.64;74.13;99973.84;5029281;28;20084;-24
2021/05/31 06:28:07;;;;;;;15.23;10.75;;;;;;;14.63;74.45;99977.59;5028836;28;20033;-25
2021/05/31 06:30:34;;;;;;;16.52;10.57;;;;;;;14.80;74.35;99972.97;5028752;28;20033;-23
2021/05/31 06:33:00;;;;;;;28.70;18.83;;;;;;;15.02;73.06;99975.66;5029146;28;20029;-24
2021/05/31 06:35:26;;;;;;;8.13;5.70;;;;;;;15.03;72.75;99971.91;5027306;28;20033;-24
2021/05/31 06:37:51;;;;;;;7.65;4.75;;;;;;;14.78;72.69;99974.28;5028546;28;20080;-24
2021/05/31 06:40:17;;;;;;;8.52;5.60;;;;;;;14.57;74.02;99967.84;5028437;28;20501;-23
2021/05/31 06:42:44;;;;;;;6.97;5.03;;;;;;;14.52;74.08;99965.03;5010962;28;20071;-23
2021/05/31 06:45:12;;;;;;;8.63;5.88;;;;;;;14.60;74.28;99989.59;5028586;28;20037;-23
2021/05/31 06:47:37;;;;;;;8.20;5.80;;;;;;;14.57;74.10;99983.94;5028676;28;20064;-23
2021/05/31 06:50:04;;;;;;;7.32;5.43;;;;;;;14.35;75.22;99979.31;5027184;28;20034;-23
2021/05/31 06:52:29;;;;;;;8.40;5.65;;;;;;;14.50;74.50;99980.59;5027941;28;20077;-23
2021/05/31 06:54:55;;;;;;;10.48;6.55;;;;;;;14.58;75.35;99981.00;5028180;28;20064;-24
2021/05/31 06:57:20;;;;;;;8.95;6.30;;;;;;;14.42;73.91;99979.13;5028256;28;20052;-24
2021/05/31 06:59:46;;;;;;;7.68;5.28;;;;;;;14.47;74.03;99971.16;5028304;28;20113;-24
2021/05/31 07:02:11;;;;;;;8.18;5.78;;;;;;;14.65;73.73;99991.56;5028074;28;20065;-24
2021/05/31 07:04:37;;;;;;;11.95;8.27;;;;;;;14.64;74.06;99985.38;5028322;28;20065;-23
2021/05/31 07:07:03;;;;;;;9.52;6.63;;;;;;;14.71;74.04;99976.34;5028101;28;20068;-24
2021/05/31 07:09:28;;;;;;;9.50;6.15;;;;;;;14.96;72.63;99984.72;5027934;28;20109;-24
2021/05/31 07:11:54;;;;;;;7.68;5.28;;;;;;;15.02;72.25;99982.91;5028427;28;20106;-24
2021/05/31 07:14:21;;;;;;;8.23;5.80;;;;;;;14.88;72.50;99984.34;5027758;28;20041;-24
2021/05/31 07:16:51;;;;;;;9.15;5.80;;;;;;;14.81;72.87;99982.66;5027981;28;20029;-24
2021/05/31 07:19:17;;;;;;;7.38;5.88;;;;;;;14.68;73.66;99988.38;5028000;28;20032;-24
2021/05/31 07:21:42;;;;;;;8.57;5.75;;;;;;;14.75;73.43;99970.25;5026658;28;20033;-24
2021/05/31 07:24:08;;;;;;;8.55;6.05;;;;;;;14.84;73.29;99978.66;5027954;28;20032;-24
2021/05/31 07:26:34;;;;;;;27.13;16.10;;;;;;;14.80;72.44;99986.41;5027803;28;20036;-28
2021/05/31 07:29:00;;;;;;;8.40;5.93;;;;;;;14.78;72.76;99979.66;5028130;28;20030;-23
2021/05/31 07:31:25;;;;;;;6.78;5.18;;;;;;;14.53;74.13;99978.22;5027568;28;20425;-23
2021/05/31 07:33:51;;;;;;;7.15;5.05;;;;;;;14.66;73.81;99971.72;5028014;28;20401;-24
2021/05/31 07:36:16;;;;;;;6.53;4.75;;;;;;;14.80;73.03;99982.91;5026064;28;20552;-23
2021/05/31 07:38:42;;;;;;;7.43;4.90;;;;;;;14.80;74.03;99977.53;5027303;28;20037;-23
2021/05/31 07:41:08;;;;;;;7.63;5.15;;;;;;;14.81;72.78;99968.41;5027440;28;20064;-23
2021/05/31 07:43:33;;;;;;;7.28;5.43;;;;;;;14.73;72.65;99972.34;5027417;28;20505;-23
2021/05/31 07:45:59;;;;;;;7.35;5.40;;;;;;;14.92;72.85;99970.19;5026969;28;20482;-23
2021/05/31 07:48:24;;;;;;;7.47;5.47;;;;;;;15.00;73.19;99966.25;5027250;28;20034;-24
2021/05/31 07:50:52;;;;;;;7.40;5.22;;;;;;;15.05;73.42;99977.03;5027263;28;20033;-24
2021/05/31 07:53:20;;;;;;;;;;;;;;;14.98;72.83;99968.38;5027353;28;20037;-23
2021/05/31 07:55:47;;;;;;;7.43;4.60;;;;;;;15.20;72.28;99960.28;5027384;28;19923;-23
2021/05/31 07:58:13;;;;;;;8.27;5.20;;;;;;;15.23;71.79;99957.91;5025811;28;20037;-23
2021/05/31 08:00:38;;;;;;;7.43;5.13;;;;;;;15.35;72.95;99965.81;5027339;28;20379;-24
2021/05/31 08:03:04;;;;;;;7.05;5.53;;;;;;;15.34;72.10;99963.38;5027149;28;20101;-23
2021/05/31 08:05:30;;;;;;;7.40;5.38;;;;;;;15.56;73.66;99950.72;5026410;28;20486;-24
2021/05/31 08:07:55;;;;;;;7.10;5.10;;;;;;;15.82;71.60;99961.72;5026946;28;20496;-23
2021/05/31 08:10:22;;;;;;;7.55;5.15;;;;;;;15.71;71.29;99917.75;5027285;28;20021;-26
2021/05/31 08:12:51;;;;;;;6.32;4.78;;;;;;;15.98;71.37;99950.03;5027518;28;20037;-24
2021/05/31 08:15:16;;;;;;;7.20;5.20;;;;;;;15.79;71.08;99963.06;5027188;28;20144;-24
2021/05/31 08:17:42;;;;;;;6.13;4.80;;;;;;;16.07;70.49;99947.66;5027439;28;20421;-24
2021/05/31 08:20:08;;;;;;;7.30;5.72;;;;;;;15.89;71.19;99946.19;5027270;28;20061;-24
2021/05/31 08:22:34;;;;;;;6.30;4.60;;;;;;;15.73;70.97;99957.88;5026896;28;20033;-24
2021/05/31 08:25:01;;;;;;;7.13;5.40;;;;;;;15.95;70.45;99945.16;5027486;28;20065;-24
2021/05/31 08:27:26;;;;;;;7.63;4.97;;;;;;;15.64;71.61;99961.00;5027440;28;20025;-24
2021/05/31 08:29:52;;;;;;;7.75;5.55;;;;;;;15.80;71.18;99948.53;5026881;28;20036;-23
2021/05/31 08:32:18;;;;;;;5.70;4.88;;;;;;;15.54;71.18;99955.53;5026976;28;20041;-24
2021/05/31 08:34:44;;;;;;;8.18;5.72;;;;;;;15.88;71.50;99944.56;5026883;28;20510;-23
2021/05/31 08:37:09;;;;;;;8.25;5.43;;;;;;;16.05;70.85;99950.59;5026703;28;20057;-23
2021/05/31 08:39:35;;;;;;;7.93;5.57;;;;;;;16.28;71.01;99948.59;5026884;28;20103;-23
2021/05/31 08:42:01;;;;;;;7.75;5.35;;;;;;;15.64;70.66;99949.44;5026821;28;20030;-24
2021/05/31 08:44:29;;;;;;;7.38;5.35;;;;;;;15.96;70.01;99956.75;5025730;28;20104;-23
2021/05/31 08:46:55;;;;;;;49.17;33.33;;;;;;;15.47;71.26;99928.88;5026762;28;20072;-24
2021/05/31 08:49:21;;;;;;;8.52;6.63;;;;;;;16.04;70.61;99951.69;5025653;28;20414;-24
2021/05/31 08:51:47;;;;;;;11.10;8.35;;;;;;;16.45;69.56;99959.22;5008896;28;20052;-23
2021/05/31 08:54:12;;;;;;;8.98;6.53;;;;;;;16.32;71.47;99943.53;5026575;28;20033;-24
2021/05/31 08:56:38;;;;;;;8.18;6.63;;;;;;;16.18;69.73;99943.16;5026935;28;20040;-24
2021/05/31 08:59:03;;;;;;;7.78;5.85;;;;;;;16.02;69.15;99935.00;5030073;28;20033;-24
2021/05/31 09:01:29;;;;;;;9.55;6.43;;;;;;;16.30;70.11;99948.34;5030413;28;20040;-24
2021/05/31 09:03:55;;;;;;;8.98;6.65;;;;;;;16.18;70.13;99949.38;5030596;28;20040;-25
2021/05/31 09:06:21;;;;;;;8.95;6.15;;;;;;;15.93;71.24;99951.88;5030278;28;20060;-24
2021/05/31 09:08:57;;;;;;;10.10;7.93;;;;;;;16.06;72.11;99922.66;5030621;28;20061;-24
2021/05/31 09:11:25;;;;;;;9.98;6.70;;;;;;;16.45;71.66;99927.72;5030553;28;20201;-24
2021/05/31 09:13:50;;;;;;;7.30;5.70;;;;;;;16.54;69.23;99951.47;5030216;28;20039;-24
2021/05/31 09:16:25;;;;;;;8.52;6.00;;;;;;;16.33;69.57;99940.59;5030084;28;20041;-23
2021/05/31 09:19:03;;;;;;;7.47;5.78;;;;;;;16.12;69.78;99941.50;5030090;28;20037;-23
2021/05/31 09:21:32;;;;;;;9.30;7.03;;;;;;;16.27;70.18;99914.72;5030381;28;20029;-24
2021/05/31 09:24:01;;;;;;;7.85;5.97;;;;;;;16.11;71.28;99953.34;5030265;28;20041;-23
2021/05/31 09:26:27;;;;;;;10.85;6.80;;;;;;;16.34;70.90;99936.00;5029789;28;20045;-23
2021/05/31 09:28:54;;;;;;;8.35;6.03;;;;;;;16.46;70.78;99948.19;5030018;28;20029;-23
2021/05/31 09:31:19;;;;;;;8.05;5.53;;;;;;;16.14;70.43;99931.28;5029644;28;20037;-23
2021/05/31 09:33:58;;;;;;;6.72;4.97;;;;;;;16.07;69.75;99931.53;5030058;28;20048;-24
2021/05/31 09:36:25;;;;;;;9.85;6.30;;;;;;;16.32;71.12;99943.53;5030159;28;20056;-24
2021/05/31 09:38:51;;;;;;;9.77;5.88;;;;;;;16.59;69.59;99938.00;5030125;28;20142;-23
2021/05/31 09:41:27;;;;;;;7.68;6.00;;;;;;;16.48;69.82;99942.53;5029918;28;20837;-23
2021/05/31 09:43:54;;;;;;;6.85;5.18;;;;;;;16.51;69.47;99931.28;5029654;28;20029;-24
2021/05/31 09:46:20;;;;;;;9.43;6.00;;;;;;;16.44;69.70;99928.78;5029470;28;20068;-24
2021/05/31 09:48:45;;;;;;;7.43;5.38;;;;;;;16.54;68.70;99913.78;5029820;28;20375;-24
2021/05/31 09:51:14;;;;;;;6.75;5.35;;;;;;;16.81;67.03;99941.38;5029305;28;20482;-24
2021/05/31 09:53:39;;;;;;;7.85;5.40;;;;;;;16.80;67.33;99939.75;5029675;28;20125;-24
2021/05/31 09:56:17;;;;;;;7.78;5.20;;;;;;;16.62;68.82;99927.53;5029412;28;20112;-23
2021/05/31 09:59:02;;;;;;;5.28;3.85;;;;;;;16.60;69.65;99928.88;5029305;28;20040;-24
2021/05/31 10:01:47;;;;;;;6.30;4.32;;;;;;;16.82;68.58;99929.53;5029700;28;20041;-23
2021/05/31 10:05:23;;;;;;;7.10;4.88;;;;;;;16.90;69.37;99932.78;5029005;28;20037;-24
2021/05/31 10:07:23;;;;;;;8.77;5.05;;;;;;;16.98;69.88;99930.41;5032692;28;20140;-23
2021/05/31 10:09:49;;;;;;;5.50;3.83;;;;;;;17.14;68.29;99928.59;5028921;28;20108;-24
2021/05/31 10:12:16;;;;;;;5.80;3.85;;;;;;;16.95;68.76;99924.75;5028887;28;20632;-24
2021/05/31 10:14:43;;;;;;;158.05;85.00;;;;;;;16.91;68.54;99904.78;5028610;28;20083;-24
2021/05/31 10:17:10;;;;;;;75.00;45.65;;;;;;;17.14;68.90;99928.59;5027615;28;20069;-23
2021/05/31 10:19:36;;;;;;;6.32;4.10;;;;;;;17.30;68.22;99917.81;5027753;28;20120;-24
2021/05/31 10:22:02;;;;;;;5.20;3.70;;;;;;;17.26;67.60;99922.94;5029127;28;20120;-24
2021/05/31 10:24:27;;;;;;;4.45;2.92;;;;;;;17.23;67.48;99921.59;5027397;28;20018;-24
2021/05/31 10:26:54;;;;;;;4.05;2.83;;;;;;;17.08;68.26;99913.47;5011516;28;20029;-24
2021/05/31 10:29:20;;;;;;;3.63;2.38;;;;;;;16.94;67.65;99912.34;5027519;28;20032;-23
2021/05/31 10:31:45;;;;;;;4.18;2.25;;;;;;;17.12;66.05;99909.19;5027504;28;20026;-24
2021/05/31 10:34:21;;;;;;;5.20;2.35;;;;;;;16.98;68.21;99899.94;5028863;28;20029;-24
2021/05/31 10:36:50;;;;;;;3.08;2.38;;;;;;;17.16;68.89;99915.66;5028747;28;20044;-24
2021/05/31 10:39:26;;;;;;;3.38;2.38;;;;;;;17.02;67.10;99898.34;5028792;28;20029;-24
2021/05/31 10:42:08;;;;;;;4.75;2.03;;;;;;;17.03;69.12;99916.16;5028752;28;20064;-26
2021/05/31 10:44:33;;;;;;;4.65;1.90;;;;;;;16.56;67.36;99911.63;5027190;28;20033;-23
2021/05/31 10:47:07;;;;;;;3.13;2.22;;;;;;;16.76;69.03;99900.94;5028833;28;20034;-23
2021/05/31 10:49:32;;;;;;;4.05;2.10;;;;;;;17.01;67.92;99897.53;5027510;28;20107;-23
2021/05/31 10:51:58;;;;;;;3.70;2.15;;;;;;;16.86;67.63;99909.09;5028366;28;20138;-23
2021/05/31 10:54:24;;;;;;;4.50;2.20;;;;;;;17.00;69.39;99895.94;5028068;28;20134;-23
2021/05/31 10:56:52;;;;;;;4.45;1.85;;;;;;;17.22;66.88;99893.03;5028075;28;20040;-23
2021/05/31 10:59:22;;;;;;;2.60;2.00;;;;;;;17.08;67.65;99905.41;5028271;28;20068;-23
2021/05/31 11:01:48;;;;;;;2.50;1.70;;;;;;;17.06;66.53;99886.78;5028550;28;20040;-23
2021/05/31 11:04:19;;;;;;;2.10;1.35;;;;;;;16.96;65.33;99894.03;5028114;28;20033;-23
2021/05/31 11:06:46;;;;;;;2.80;1.80;;;;;;;16.79;65.87;99884.25;5028303;28;20029;-24
2021/05/31 11:09:16;;;;;;;2.40;1.50;;;;;;;17.05;65.39;99873.59;5028121;28;20065;-23
2021/05/31 11:11:45;;;;;;;2.05;1.10;;;;;;;17.30;66.34;99888.19;5028134;28;20033;-24
2021/05/31 11:14:11;;;;;;;3.78;1.70;;;;;;;17.19;65.75;99895.44;5027960;28;20064;-23
2021/05/31 11:16:56;;;;;;;2.38;1.52;;;;;;;16.85;66.25;99874.34;5028095;28;20123;-24
2021/05/31 11:19:35;;;;;;;2.00;1.40;;;;;;;16.81;66.72;99881.31;5028147;28;20057;-24
2021/05/31 11:22:14;;;;;;;4.18;1.80;;;;;;;16.89;67.11;99871.94;5027230;28;20112;-23
2021/05/31 11:24:39;;;;;;;2.63;1.83;;;;;;;16.90;67.18;99878.91;5028081;28;20409;-24
2021/05/31 11:27:07;;;;;;;2.80;2.03;;;;;;;17.27;66.18;99868.78;5027696;28;20040;-24
2021/05/31 11:29:34;;;;;;;2.13;1.52;;;;;;;17.04;63.91;99883.56;5027684;28;20028;-24
2021/05/31 11:32:00;;;;;;;3.33;1.70;;;;;;;16.52;66.81;99875.53;5026521;28;20057;-23
2021/05/31 11:34:25;;;;;;;3.42;1.77;;;;;;;16.89;66.14;99871.94;5027140;28;20032;-23
2021/05/31 11:36:50;;;;;;;3.25;1.85;;;;;;;16.74;65.93;99878.84;5027838;28;20052;-24
2021/05/31 11:39:17;;;;;;;2.72;1.70;;;;;;;16.73;66.38;99862.97;5027369;28;20045;-24
2021/05/31 11:41:47;;;;;;;5.05;2.10;;;;;;;16.87;64.87;99856.84;5027658;28;20030;-23